Time;durP1;ratioP1;P1;durP2;ratioP2;P2;SDS_P1;SDS_P2;PMS_P1;PMS_P2;Temp;Humidity;BMP_temperature;BMP_pressure;BME280_temperature;BME280_humidity;BME280_pressure;Samples;Min_cycle;Max_cycle;Signal;HPM_P1;HPM_P2
2021/10/25 00:01:58;;;;;;;8.70;6.60;;;6.50;98.30;;;;;;5174063;23;20762;-87
2021/10/25 00:04:02;;;;;;;6.97;6.27;;;6.50;98.30;;;;;;5173872;22;20471;-87
2021/10/25 00:06:05;;;;;;;9.13;6.87;;;6.50;98.30;;;;;;5174081;23;20399;-87
2021/10/25 00:08:10;;;;;;;10.27;8.07;;;6.40;98.30;;;;;;5173307;23;20457;-87
2021/10/25 00:10:18;;;;;;;9.40;7.00;;;6.40;98.30;;;;;;5174354;23;20418;-87
2021/10/25 00:12:21;;;;;;;10.33;7.10;;;6.40;98.30;;;;;;5174005;23;20902;-87
2021/10/25 00:14:24;;;;;;;7.53;6.67;;;6.40;98.30;;;;;;5173662;22;20471;-87
2021/10/25 00:16:29;;;;;;;8.63;7.10;;;6.40;98.30;;;;;;5173796;23;20405;-86
2021/10/25 00:18:32;;;;;;;7.30;6.03;;;6.40;98.30;;;;;;5173996;23;20435;-86
2021/10/25 00:20:35;;;;;;;7.73;6.13;;;6.40;98.30;;;;;;5173505;23;20443;-86
2021/10/25 00:22:40;;;;;;;9.00;6.60;;;6.40;98.30;;;;;;5165617;22;20732;-86
2021/10/25 00:24:43;;;;;;;9.90;6.80;;;6.40;98.30;;;;;;5173672;23;20488;-86
2021/10/25 00:26:46;;;;;;;8.60;6.47;;;6.30;98.30;;;;;;5173357;23;20422;-86
2021/10/25 00:28:49;;;;;;;8.50;6.70;;;6.40;98.30;;;;;;5173884;23;20511;-85
2021/10/25 00:30:52;;;;;;;6.80;6.10;;;6.40;98.30;;;;;;5173460;23;20526;-86
2021/10/25 00:32:57;;;;;;;7.47;6.23;;;6.40;98.30;;;;;;5173997;22;20497;-86
2021/10/25 00:35:00;;;;;;;9.40;7.10;;;6.40;98.30;;;;;;5173727;23;20494;-87
2021/10/25 00:37:04;;;;;;;8.33;6.60;;;6.30;98.30;;;;;;5173466;23;20419;-85
2021/10/25 00:39:26;;;;;;;8.30;6.40;;;6.30;98.30;;;;;;5173754;23;20391;-87
2021/10/25 00:41:29;;;;;;;11.70;7.47;;;6.30;98.30;;;;;;5174464;23;20423;-86
2021/10/25 00:43:32;;;;;;;11.70;7.30;;;6.30;98.30;;;;;;5174112;22;20433;-86
2021/10/25 00:45:36;;;;;;;10.10;7.40;;;6.20;98.30;;;;;;5173544;23;20402;-86
2021/10/25 00:47:39;;;;;;;8.10;7.30;;;6.20;98.30;;;;;;5173255;23;20895;-85
2021/10/25 00:49:48;;;;;;;10.43;7.50;;;6.20;98.30;;;;;;5165393;23;20406;-87
2021/10/25 00:51:51;;;;;;;8.07;6.67;;;6.20;98.30;;;;;;5173606;23;20891;-86
2021/10/25 00:53:55;;;;;;;9.40;7.70;;;6.20;98.30;;;;;;5173606;22;20413;-86
2021/10/25 00:55:59;;;;;;;10.17;6.80;;;6.20;98.30;;;;;;5174909;23;20406;-85
2021/10/25 00:58:02;;;;;;;8.67;7.37;;;6.10;98.30;;;;;;5174999;23;20403;-87
2021/10/25 01:00:08;;;;;;;8.33;7.30;;;6.10;98.30;;;;;;5167425;23;20936;-87
2021/10/25 01:02:11;;;;;;;11.30;8.00;;;6.10;98.30;;;;;;5175402;23;20404;-87
2021/10/25 01:04:19;;;;;;;11.00;9.33;;;6.20;98.30;;;;;;5175224;22;20449;-86
2021/10/25 01:06:24;;;;;;;12.83;9.57;;;6.10;98.30;;;;;;5175743;23;20409;-87
2021/10/25 01:08:30;;;;;;;9.40;7.80;;;6.10;98.30;;;;;;5175474;23;20458;-86
2021/10/25 01:10:37;;;;;;;13.10;7.70;;;6.10;98.30;;;;;;5175287;23;20762;-86
2021/10/25 01:12:40;;;;;;;7.83;6.57;;;6.10;98.30;;;;;;5175502;22;20427;-87
2021/10/25 01:14:45;;;;;;;10.63;8.00;;;6.10;98.30;;;;;;5175526;23;20497;-86
2021/10/25 01:16:48;;;;;;;8.80;6.80;;;6.00;98.30;;;;;;5175411;23;21089;-86
2021/10/25 01:18:54;;;;;;;9.10;7.57;;;6.00;98.30;;;;;;5175456;23;20841;-86
2021/10/25 01:21:02;;;;;;;8.03;6.97;;;6.00;98.30;;;;;;5167269;23;20402;-87
2021/10/25 01:23:07;;;;;;;10.93;7.60;;;6.00;98.30;;;;;;5175198;22;20500;-86
2021/10/25 01:25:10;;;;;;;8.43;7.10;;;6.00;98.30;;;;;;5175750;23;20490;-86
2021/10/25 01:27:13;;;;;;;11.00;7.13;;;6.00;98.30;;;;;;5175086;23;20777;-86
2021/10/25 01:29:19;;;;;;;9.57;7.33;;;6.00;98.30;;;;;;5175223;23;20432;-86
2021/10/25 01:31:23;;;;;;;11.27;6.33;;;6.00;98.30;;;;;;5167305;23;20469;-86
2021/10/25 01:33:31;;;;;;;11.07;7.80;;;5.90;98.30;;;;;;5175421;22;20443;-86
2021/10/25 01:35:35;;;;;;;10.90;6.83;;;6.00;98.30;;;;;;5175411;23;20481;-86
2021/10/25 01:37:40;;;;;;;7.73;6.90;;;6.00;98.30;;;;;;5174995;23;20485;-86
2021/10/25 01:39:43;;;;;;;10.40;7.60;;;6.00;98.30;;;;;;5167238;23;20435;-85
2021/10/25 01:41:46;;;;;;;8.57;6.50;;;5.90;98.30;;;;;;5174984;23;20423;-86
2021/10/25 01:43:49;;;;;;;7.63;6.73;;;5.90;98.30;;;;;;5166723;22;20945;-86
2021/10/25 01:45:53;;;;;;;9.03;6.80;;;5.90;98.30;;;;;;5175319;23;20450;-85
2021/10/25 01:47:57;;;;;;;9.10;7.27;;;6.00;98.30;;;;;;5174567;23;20394;-86
2021/10/25 01:50:00;;;;;;;8.60;6.60;;;6.00;98.30;;;;;;5175004;23;20924;-86
2021/10/25 01:52:04;;;;;;;6.93;6.23;;;6.00;98.30;;;;;;5175526;23;20484;-85
2021/10/25 01:54:09;;;;;;;9.13;6.90;;;5.90;98.30;;;;;;5174974;22;20424;-86
2021/10/25 01:56:13;;;;;;;10.30;6.93;;;5.90;98.30;;;;;;5175368;23;21075;-86
2021/10/25 01:58:16;;;;;;;10.60;6.73;;;5.90;98.30;;;;;;5166488;23;20963;-85
2021/10/25 02:00:19;;;;;;;8.70;6.73;;;6.00;98.30;;;;;;5166363;23;20466;-85
2021/10/25 02:02:22;;;;;;;9.10;7.23;;;6.00;98.30;;;;;;5174558;23;20490;-86
2021/10/25 02:04:26;;;;;;;9.33;7.00;;;6.00;98.30;;;;;;5174734;22;20535;-86
2021/10/25 02:06:29;;;;;;;8.97;6.13;;;6.00;98.30;;;;;;5175063;23;20422;-85
2021/10/25 02:08:32;;;;;;;9.60;7.23;;;5.90;98.30;;;;;;5174689;23;20398;-86
2021/10/25 02:10:37;;;;;;;7.80;6.23;;;6.00;98.30;;;;;;5166306;23;20429;-86
2021/10/25 02:12:40;;;;;;;8.43;6.23;;;6.00;98.30;;;;;;5174552;22;20401;-86
2021/10/25 02:14:44;;;;;;;7.53;5.83;;;5.90;98.30;;;;;;5175123;23;20409;-86
2021/10/25 02:16:47;;;;;;;9.77;6.97;;;5.90;98.30;;;;;;5174463;23;20430;-86
2021/10/25 02:18:50;;;;;;;11.40;6.70;;;5.90;98.30;;;;;;5175128;23;20402;-87
2021/10/25 02:20:53;;;;;;;9.37;6.73;;;5.90;98.30;;;;;;5175051;23;20782;-86
2021/10/25 02:22:56;;;;;;;12.40;6.60;;;5.80;98.30;;;;;;5174497;22;20455;-86
2021/10/25 02:24:59;;;;;;;8.93;7.00;;;5.80;98.30;;;;;;5174717;23;20763;-85
2021/10/25 02:27:04;;;;;;;7.83;7.03;;;5.80;98.30;;;;;;5174127;23;20731;-86
2021/10/25 02:29:07;;;;;;;8.23;7.00;;;5.70;98.30;;;;;;5175607;23;20429;-87
2021/10/25 02:31:11;;;;;;;10.80;8.00;;;5.70;98.30;;;;;;5175311;23;20525;-86
2021/10/25 02:33:16;;;;;;;11.17;7.70;;;5.70;98.30;;;;;;5166972;22;20456;-86
2021/10/25 02:35:19;;;;;;;10.17;7.67;;;5.70;98.30;;;;;;5175411;23;20505;-87
2021/10/25 02:37:24;;;;;;;9.23;7.40;;;5.70;98.30;;;;;;5174976;23;20398;-87
2021/10/25 02:39:29;;;;;;;11.07;6.97;;;5.60;98.30;;;;;;5175054;23;20412;-87
2021/10/25 02:41:32;;;;;;;9.90;7.17;;;5.60;98.30;;;;;;5174511;23;20398;-85
2021/10/25 02:43:37;;;;;;;8.87;7.37;;;5.60;98.30;;;;;;5166008;22;20426;-85
2021/10/25 02:45:41;;;;;;;9.10;7.43;;;5.60;98.30;;;;;;5174875;23;20935;-86
2021/10/25 02:47:45;;;;;;;9.27;6.97;;;5.60;98.30;;;;;;5174389;23;20538;-86
2021/10/25 02:49:48;;;;;;;7.90;6.70;;;5.50;98.30;;;;;;5166496;23;20452;-86
2021/10/25 02:51:51;;;;;;;11.70;7.53;;;5.50;98.30;;;;;;5174306;23;20426;-86
2021/10/25 02:53:54;;;;;;;9.80;7.43;;;5.50;98.30;;;;;;5174552;22;20742;-86
2021/10/25 02:55:57;;;;;;;10.83;7.80;;;5.50;98.30;;;;;;5174591;23;20470;-86
2021/10/25 02:58:00;;;;;;;9.43;6.87;;;5.50;98.30;;;;;;5174484;23;20423;-86
2021/10/25 03:00:07;;;;;;;9.83;7.40;;;5.50;98.30;;;;;;5174230;23;21076;-84
2021/10/25 03:02:11;;;;;;;9.30;7.03;;;5.50;98.30;;;;;;5174914;23;20902;-86
2021/10/25 03:04:14;;;;;;;8.07;7.37;;;5.50;98.30;;;;;;5174314;22;20425;-86
2021/10/25 03:06:23;;;;;;;10.53;7.97;;;5.40;98.30;;;;;;5174438;23;20455;-85
2021/10/25 03:08:26;;;;;;;12.57;7.70;;;5.40;98.30;;;;;;5172677;23;20803;-85
2021/10/25 03:10:29;;;;;;;8.73;7.03;;;5.50;98.30;;;;;;5166132;23;20807;-85
2021/10/25 03:12:33;;;;;;;9.50;7.73;;;5.50;98.30;;;;;;5165925;23;20470;-86
2021/10/25 03:14:36;;;;;;;10.50;7.70;;;5.50;98.30;;;;;;5174492;23;20423;-86
2021/10/25 03:16:44;;;;;;;8.03;7.23;;;5.40;98.30;;;;;;5174383;23;20456;-86
2021/10/25 03:18:49;;;;;;;9.37;7.47;;;5.40;98.30;;;;;;5174187;23;20474;-86
2021/10/25 03:20:53;;;;;;;9.03;8.13;;;5.40;98.30;;;;;;5166389;23;20953;-86
2021/10/25 03:22:56;;;;;;;9.50;7.20;;;5.40;98.30;;;;;;5166229;22;20454;-87
2021/10/25 03:24:59;;;;;;;8.67;7.63;;;5.40;98.30;;;;;;5175086;23;20458;-86
2021/10/25 03:27:03;;;;;;;8.67;7.27;;;5.40;98.30;;;;;;5174012;23;20490;-86
2021/10/25 03:29:06;;;;;;;7.73;6.67;;;5.30;98.30;;;;;;5173953;23;20428;-86
2021/10/25 03:31:10;;;;;;;9.07;7.53;;;5.40;98.30;;;;;;5174555;23;21011;-86
2021/10/25 03:33:15;;;;;;;8.90;7.70;;;5.40;98.30;;;;;;5174520;22;21043;-86
2021/10/25 03:35:19;;;;;;;10.20;8.30;;;5.30;98.30;;;;;;5175178;23;20431;-86
2021/10/25 03:37:22;;;;;;;8.40;7.00;;;5.30;98.30;;;;;;5174965;23;20939;-86
2021/10/25 03:39:27;;;;;;;9.23;8.07;;;5.30;98.30;;;;;;5175166;23;20423;-86
2021/10/25 03:41:33;;;;;;;8.27;7.07;;;5.30;98.30;;;;;;5175185;23;20774;-86
2021/10/25 03:43:40;;;;;;;7.57;6.83;;;5.30;98.30;;;;;;5174828;22;20960;-86
2021/10/25 03:45:49;;;;;;;10.23;8.23;;;5.40;98.30;;;;;;5174314;23;20459;-85
2021/10/25 03:47:56;;;;;;;8.93;8.03;;;5.40;98.30;;;;;;5173989;23;20419;-85
2021/10/25 03:50:07;;;;;;;10.23;7.43;;;5.30;98.30;;;;;;5174777;23;20438;-85
2021/10/25 03:52:16;;;;;;;11.80;8.70;;;5.30;98.30;;;;;;5174606;23;20399;-85
2021/10/25 03:54:28;;;;;;;12.37;9.10;;;5.20;98.30;;;;;;5174547;22;20443;-86
2021/10/25 10:48:07;;;;;;;11.07;8.80;;;12.80;98.30;;;;;;4992009;23;20526;-83
2021/10/25 22:51:14;;;;;;;10.87;7.00;;;11.70;98.30;;;;;;5039852;23;20428;-82
2021/10/25 22:53:20;;;;;;;7.90;7.10;;;11.60;98.30;;;;;;5077747;23;20443;-82
2021/10/25 22:55:24;;;;;;;10.83;8.50;;;11.60;98.30;;;;;;5150449;23;20763;-82
2021/10/25 22:57:27;;;;;;;10.07;7.55;;;11.60;98.30;;;;;;5149879;23;20859;-82
2021/10/25 22:59:30;;;;;;;10.43;8.37;;;11.60;98.30;;;;;;5150296;23;20524;-82
2021/10/25 23:01:34;;;;;;;11.37;8.10;;;11.60;98.30;;;;;;5141500;23;20456;-82
2021/10/25 23:03:37;;;;;;;11.25;8.68;;;11.60;98.30;;;;;;5141450;23;20471;-82
2021/10/25 23:05:41;;;;;;;10.45;8.20;;;11.60;98.30;;;;;;5149654;23;20232;-83
2021/10/25 23:07:43;;;;;;;10.27;9.10;;;11.60;98.30;;;;;;5149843;23;20231;-83
2021/10/25 23:09:48;;;;;;;14.80;9.03;;;11.60;98.30;;;;;;5143114;23;20207;-82
2021/10/25 23:11:51;;;;;;;10.80;8.80;;;11.60;98.30;;;;;;5155001;23;20424;-82
2021/10/25 23:13:54;;;;;;;13.18;8.43;;;11.60;98.30;;;;;;5156533;23;20427;-83
2021/10/25 23:15:57;;;;;;;13.00;9.30;;;11.60;98.30;;;;;;5148186;23;20216;-83
2021/10/25 23:18:00;;;;;;;13.40;10.20;;;11.60;98.30;;;;;;5155660;23;20454;-83
2021/10/25 23:20:04;;;;;;;16.03;9.43;;;11.50;98.30;;;;;;5156189;23;20429;-83
2021/10/25 23:22:07;;;;;;;11.67;9.73;;;11.50;98.30;;;;;;5155847;23;20484;-83
2021/10/25 23:24:10;;;;;;;13.47;9.23;;;11.60;98.30;;;;;;5148027;23;20436;-83
2021/10/25 23:26:15;;;;;;;11.33;9.47;;;11.50;98.30;;;;;;5147958;23;20512;-83
2021/10/25 23:28:18;;;;;;;11.00;9.00;;;11.50;98.30;;;;;;5156993;23;20401;-83
2021/10/25 23:30:22;;;;;;;11.40;9.30;;;11.50;98.30;;;;;;5157461;23;20419;-83
2021/10/25 23:32:25;;;;;;;15.60;9.23;;;11.50;98.30;;;;;;5156737;23;20480;-83
2021/10/25 23:34:28;;;;;;;11.67;9.53;;;11.60;98.30;;;;;;5152757;23;20458;-83
2021/10/25 23:36:31;;;;;;;11.53;9.30;;;11.60;98.30;;;;;;5150599;23;20440;-83
2021/10/25 23:38:33;;;;;;;12.93;9.67;;;11.50;98.30;;;;;;5152377;23;20436;-83
2021/10/25 23:40:37;;;;;;;14.30;9.87;;;11.60;98.30;;;;;;5151140;23;20430;-83
2021/10/25 23:42:41;;;;;;;15.53;10.37;;;11.60;98.30;;;;;;5151527;23;20422;-83
2021/10/25 23:44:44;;;;;;;14.50;10.60;;;11.60;98.30;;;;;;5143291;23;20481;-83
2021/10/25 23:46:47;;;;;;;15.03;10.60;;;11.50;98.30;;;;;;5160681;22;20482;-83
2021/10/25 23:48:51;;;;;;;11.73;10.57;;;11.50;98.30;;;;;;5168383;22;20459;-83
2021/10/25 23:50:54;;;;;;;14.93;10.27;;;11.50;98.30;;;;;;5176526;22;20428;-83
2021/10/25 23:52:56;;;;;;;13.67;11.07;;;11.50;98.30;;;;;;5176466;22;20481;-83
2021/10/25 23:55:00;;;;;;;12.90;11.50;;;11.50;98.30;;;;;;5176321;22;20419;-83
2021/10/25 23:57:04;;;;;;;14.60;11.53;;;11.60;98.30;;;;;;5176260;22;20513;-83
2021/10/25 23:59:09;;;;;;;14.23;11.57;;;11.50;98.30;;;;;;5177356;22;20924;-84
